Decoded Metar for KW31 ( in ) (IATA:) | Meteo·Mobile Aviation Weather
aviador You're here:

KW31 Decoded Metar

in
Report Time2019-10-18 13:55:00
UTC Time2019-10-18 14:04:30
Flight Rules vfr VFR
Wind330° at 03 kt
Visibility9999 m
Phenomena:N/A
Clouds:N/A
Expected CloudBase > 3,200 ft AGL from Temp-Dew spread
CeilingNone
Temp11°C
Dew Point03°C (58% RH)
AAT8.4°C
QNH1016 hPa
Raw Report
METAR KW31 181355Z AUTO 33003KT 10SM CLR 11/03 A3001 RMK AO1 T01120032=

Extra information for KW31:More info

Social comments